sensor_id;sensor_type;location;lat;lon;timestamp;P1;durP1;ratioP1;P2;durP2;ratioP2
38513;SDS011;24282;48.400;10.808;2022-08-05T00:02:08;2.85;;;2.17;;
38513;SDS011;24282;48.400;10.808;2022-08-05T00:04:33;3.33;;;2.40;;
38513;SDS011;24282;48.400;10.808;2022-08-05T00:06:59;3.90;;;2.50;;
38513;SDS011;24282;48.400;10.808;2022-08-05T00:09:25;3.78;;;2.50;;
38513;SDS011;24282;48.400;10.808;2022-08-05T00:11:51;3.00;;;1.85;;
38513;SDS011;24282;48.400;10.808;2022-08-05T00:14:17;3.30;;;2.15;;
38513;SDS011;24282;48.400;10.808;2022-08-05T00:16:43;5.63;;;2.45;;
38513;SDS011;24282;48.400;10.808;2022-08-05T00:19:09;4.10;;;2.20;;
38513;SDS011;24282;48.400;10.808;2022-08-05T00:21:35;3.33;;;2.20;;
38513;SDS011;24282;48.400;10.808;2022-08-05T00:24:01;3.03;;;2.40;;
38513;SDS011;24282;48.400;10.808;2022-08-05T00:26:27;3.30;;;2.75;;
38513;SDS011;24282;48.400;10.808;2022-08-05T00:28:53;3.55;;;2.55;;
38513;SDS011;24282;48.400;10.808;2022-08-05T00:31:19;8.73;;;2.75;;
38513;SDS011;24282;48.400;10.808;2022-08-05T00:33:45;2.78;;;2.15;;
38513;SDS011;24282;48.400;10.808;2022-08-05T00:36:10;5.00;;;2.25;;
38513;SDS011;24282;48.400;10.808;2022-08-05T00:38:36;2.92;;;2.33;;
38513;SDS011;24282;48.400;10.808;2022-08-05T00:41:03;4.03;;;2.60;;
38513;SDS011;24282;48.400;10.808;2022-08-05T00:43:32;2.65;;;2.10;;
38513;SDS011;24282;48.400;10.808;2022-08-05T00:45:58;3.05;;;2.33;;
38513;SDS011;24282;48.400;10.808;2022-08-05T00:48:25;3.38;;;2.42;;
38513;SDS011;24282;48.400;10.808;2022-08-05T00:50:51;4.78;;;2.30;;
38513;SDS011;24282;48.400;10.808;2022-08-05T00:53:17;3.70;;;2.67;;
38513;SDS011;24282;48.400;10.808;2022-08-05T00:55:45;3.25;;;2.45;;
38513;SDS011;24282;48.400;10.808;2022-08-05T00:58:12;4.40;;;2.05;;
38513;SDS011;24282;48.400;10.808;2022-08-05T01:00:41;2.67;;;1.98;;
38513;SDS011;24282;48.400;10.808;2022-08-05T01:03:07;3.22;;;2.40;;
38513;SDS011;24282;48.400;10.808;2022-08-05T01:05:34;4.03;;;2.78;;
38513;SDS011;24282;48.400;10.808;2022-08-05T01:08:00;3.10;;;2.25;;
38513;SDS011;24282;48.400;10.808;2022-08-05T01:10:27;2.75;;;2.15;;
38513;SDS011;24282;48.400;10.808;2022-08-05T01:13:15;2.72;;;2.25;;
38513;SDS011;24282;48.400;10.808;2022-08-05T01:15:52;3.88;;;2.30;;
38513;SDS011;24282;48.400;10.808;2022-08-05T01:18:24;2.60;;;2.13;;
38513;SDS011;24282;48.400;10.808;2022-08-05T01:29:04;3.55;;;2.47;;
38513;SDS011;24282;48.400;10.808;2022-08-05T01:31:38;4.80;;;1.92;;
38513;SDS011;24282;48.400;10.808;2022-08-05T01:34:19;3.58;;;2.38;;
38513;SDS011;24282;48.400;10.808;2022-08-05T01:36:55;6.65;;;2.30;;
38513;SDS011;24282;48.400;10.808;2022-08-05T01:39:28;2.60;;;2.35;;
38513;SDS011;24282;48.400;10.808;2022-08-05T01:41:56;4.75;;;2.55;;
38513;SDS011;24282;48.400;10.808;2022-08-05T01:44:23;3.58;;;2.13;;
38513;SDS011;24282;48.400;10.808;2022-08-05T01:46:50;3.47;;;2.35;;
38513;SDS011;24282;48.400;10.808;2022-08-05T01:49:19;3.60;;;2.38;;
38513;SDS011;24282;48.400;10.808;2022-08-05T01:51:47;4.45;;;2.50;;
38513;SDS011;24282;48.400;10.808;2022-08-05T01:54:14;3.22;;;2.35;;
38513;SDS011;24282;48.400;10.808;2022-08-05T01:56:41;4.78;;;2.17;;
38513;SDS011;24282;48.400;10.808;2022-08-05T01:59:11;5.47;;;2.63;;
38513;SDS011;24282;48.400;10.808;2022-08-05T02:01:39;3.45;;;2.03;;
38513;SDS011;24282;48.400;10.808;2022-08-05T02:04:07;3.97;;;2.03;;
38513;SDS011;24282;48.400;10.808;2022-08-05T02:06:34;3.80;;;2.38;;
38513;SDS011;24282;48.400;10.808;2022-08-05T02:09:01;3.47;;;2.20;;
38513;SDS011;24282;48.400;10.808;2022-08-05T02:11:36;2.95;;;2.00;;
38513;SDS011;24282;48.400;10.808;2022-08-05T02:14:27;2.97;;;2.10;;
38513;SDS011;24282;48.400;10.808;2022-08-05T02:16:57;5.82;;;2.55;;
38513;SDS011;24282;48.400;10.808;2022-08-05T02:19:36;2.97;;;1.60;;
38513;SDS011;24282;48.400;10.808;2022-08-05T02:22:15;2.97;;;2.05;;
38513;SDS011;24282;48.400;10.808;2022-08-05T02:24:44;4.97;;;2.05;;
38513;SDS011;24282;48.400;10.808;2022-08-05T02:27:15;2.65;;;1.85;;
38513;SDS011;24282;48.400;10.808;2022-08-05T02:29:44;2.88;;;2.20;;
38513;SDS011;24282;48.400;10.808;2022-08-05T02:32:12;5.35;;;2.28;;
38513;SDS011;24282;48.400;10.808;2022-08-05T02:34:41;4.00;;;2.00;;
38513;SDS011;24282;48.400;10.808;2022-08-05T02:37:08;5.53;;;2.38;;
38513;SDS011;24282;48.400;10.808;2022-08-05T02:39:36;2.88;;;2.08;;
38513;SDS011;24282;48.400;10.808;2022-08-05T02:42:04;4.45;;;1.98;;
38513;SDS011;24282;48.400;10.808;2022-08-05T02:44:33;3.17;;;2.10;;
38513;SDS011;24282;48.400;10.808;2022-08-05T02:47:00;2.95;;;2.05;;
38513;SDS011;24282;48.400;10.808;2022-08-05T02:49:30;3.80;;;2.20;;
38513;SDS011;24282;48.400;10.808;2022-08-05T02:51:58;3.47;;;2.40;;
38513;SDS011;24282;48.400;10.808;2022-08-05T02:54:26;3.50;;;2.50;;
38513;SDS011;24282;48.400;10.808;2022-08-05T02:56:53;4.45;;;2.15;;
38513;SDS011;24282;48.400;10.808;2022-08-05T02:59:20;3.00;;;1.92;;
38513;SDS011;24282;48.400;10.808;2022-08-05T03:01:52;3.60;;;2.17;;
38513;SDS011;24282;48.400;10.808;2022-08-05T03:04:24;4.18;;;1.95;;
38513;SDS011;24282;48.400;10.808;2022-08-05T03:06:51;4.40;;;2.42;;
38513;SDS011;24282;48.400;10.808;2022-08-05T03:09:17;3.95;;;2.28;;
38513;SDS011;24282;48.400;10.808;2022-08-05T03:14:28;3.55;;;2.05;;
38513;SDS011;24282;48.400;10.808;2022-08-05T03:16:54;4.13;;;2.65;;
38513;SDS011;24282;48.400;10.808;2022-08-05T03:19:19;2.88;;;2.33;;
38513;SDS011;24282;48.400;10.808;2022-08-05T03:21:45;6.75;;;2.60;;
38513;SDS011;24282;48.400;10.808;2022-08-05T03:24:11;5.10;;;2.60;;
38513;SDS011;24282;48.400;10.808;2022-08-05T03:26:37;4.22;;;1.92;;
38513;SDS011;24282;48.400;10.808;2022-08-05T03:29:03;3.67;;;2.13;;
38513;SDS011;24282;48.400;10.808;2022-08-05T03:31:30;4.30;;;2.50;;
38513;SDS011;24282;48.400;10.808;2022-08-05T03:33:56;3.92;;;2.05;;
38513;SDS011;24282;48.400;10.808;2022-08-05T03:36:23;5.45;;;2.42;;
38513;SDS011;24282;48.400;10.808;2022-08-05T03:38:49;3.60;;;2.60;;
38513;SDS011;24282;48.400;10.808;2022-08-05T03:41:15;3.70;;;2.60;;
38513;SDS011;24282;48.400;10.808;2022-08-05T03:43:41;3.83;;;2.60;;
38513;SDS011;24282;48.400;10.808;2022-08-05T03:46:07;4.18;;;2.95;;
38513;SDS011;24282;48.400;10.808;2022-08-05T03:48:33;4.47;;;3.05;;
38513;SDS011;24282;48.400;10.808;2022-08-05T03:51:02;4.25;;;2.67;;
38513;SDS011;24282;48.400;10.808;2022-08-05T03:53:36;5.38;;;2.83;;
38513;SDS011;24282;48.400;10.808;2022-08-05T03:56:10;5.85;;;2.78;;
38513;SDS011;24282;48.400;10.808;2022-08-05T03:58:41;4.40;;;2.15;;
38513;SDS011;24282;48.400;10.808;2022-08-05T04:01:10;3.67;;;2.65;;
38513;SDS011;24282;48.400;10.808;2022-08-05T04:03:37;3.20;;;2.60;;
38513;SDS011;24282;48.400;10.808;2022-08-05T04:06:06;3.55;;;2.50;;
38513;SDS011;24282;48.400;10.808;2022-08-05T04:08:34;3.67;;;2.72;;
38513;SDS011;24282;48.400;10.808;2022-08-05T04:11:03;3.88;;;2.97;;
38513;SDS011;24282;48.400;10.808;2022-08-05T04:13:31;4.55;;;2.95;;
38513;SDS011;24282;48.400;10.808;2022-08-05T04:15:57;3.30;;;2.75;;
38513;SDS011;24282;48.400;10.808;2022-08-05T04:18:23;3.53;;;2.70;;
38513;SDS011;24282;48.400;10.808;2022-08-05T04:20:56;3.95;;;2.88;;
38513;SDS011;24282;48.400;10.808;2022-08-05T04:23:22;3.83;;;2.78;;
38513;SDS011;24282;48.400;10.808;2022-08-05T04:25:53;4.30;;;2.83;;
38513;SDS011;24282;48.400;10.808;2022-08-05T04:28:19;3.83;;;3.08;;
38513;SDS011;24282;48.400;10.808;2022-08-05T04:30:45;3.55;;;2.70;;
38513;SDS011;24282;48.400;10.808;2022-08-05T04:33:12;2.65;;;2.25;;
38513;SDS011;24282;48.400;10.808;2022-08-05T04:35:39;6.07;;;3.25;;
38513;SDS011;24282;48.400;10.808;2022-08-05T04:38:06;3.30;;;2.90;;
38513;SDS011;24282;48.400;10.808;2022-08-05T04:40:38;3.70;;;2.80;;
38513;SDS011;24282;48.400;10.808;2022-08-05T04:43:05;5.25;;;2.70;;
38513;SDS011;24282;48.400;10.808;2022-08-05T04:45:31;3.53;;;2.83;;
38513;SDS011;24282;48.400;10.808;2022-08-05T04:50:41;5.15;;;3.20;;
38513;SDS011;24282;48.400;10.808;2022-08-05T04:53:13;4.22;;;2.75;;
38513;SDS011;24282;48.400;10.808;2022-08-05T04:55:41;5.10;;;2.88;;
38513;SDS011;24282;48.400;10.808;2022-08-05T04:58:08;4.03;;;2.70;;
38513;SDS011;24282;48.400;10.808;2022-08-05T05:00:36;3.15;;;2.42;;
38513;SDS011;24282;48.400;10.808;2022-08-05T05:03:02;4.68;;;2.75;;
38513;SDS011;24282;48.400;10.808;2022-08-05T05:05:29;3.97;;;3.00;;
38513;SDS011;24282;48.400;10.808;2022-08-05T05:07:56;4.05;;;2.65;;
38513;SDS011;24282;48.400;10.808;2022-08-05T05:10:25;5.57;;;2.83;;
38513;SDS011;24282;48.400;10.808;2022-08-05T05:12:50;5.05;;;2.67;;
38513;SDS011;24282;48.400;10.808;2022-08-05T05:15:16;4.43;;;2.97;;
38513;SDS011;24282;48.400;10.808;2022-08-05T05:17:42;5.15;;;3.00;;
38513;SDS011;24282;48.400;10.808;2022-08-05T05:20:08;4.70;;;3.10;;
38513;SDS011;24282;48.400;10.808;2022-08-05T05:22:35;5.35;;;3.25;;
38513;SDS011;24282;48.400;10.808;2022-08-05T05:25:02;5.05;;;3.33;;
38513;SDS011;24282;48.400;10.808;2022-08-05T05:27:29;4.35;;;2.80;;
38513;SDS011;24282;48.400;10.808;2022-08-05T05:29:56;5.18;;;3.20;;
38513;SDS011;24282;48.400;10.808;2022-08-05T05:32:22;4.30;;;2.95;;
38513;SDS011;24282;48.400;10.808;2022-08-05T05:34:48;4.20;;;3.10;;
38513;SDS011;24282;48.400;10.808;2022-08-05T05:37:14;4.07;;;2.97;;
38513;SDS011;24282;48.400;10.808;2022-08-05T05:39:41;5.28;;;2.72;;
38513;SDS011;24282;48.400;10.808;2022-08-05T05:42:07;3.95;;;2.75;;
38513;SDS011;24282;48.400;10.808;2022-08-05T05:44:33;3.42;;;2.42;;
38513;SDS011;24282;48.400;10.808;2022-08-05T05:46:59;4.40;;;2.42;;
38513;SDS011;24282;48.400;10.808;2022-08-05T05:49:25;3.85;;;2.92;;
38513;SDS011;24282;48.400;10.808;2022-08-05T05:51:51;3.75;;;2.70;;
38513;SDS011;24282;48.400;10.808;2022-08-05T05:54:20;4.97;;;2.83;;
38513;SDS011;24282;48.400;10.808;2022-08-05T05:56:46;3.72;;;2.70;;
38513;SDS011;24282;48.400;10.808;2022-08-05T05:59:11;3.92;;;2.20;;
38513;SDS011;24282;48.400;10.808;2022-08-05T06:01:38;2.78;;;2.30;;
38513;SDS011;24282;48.400;10.808;2022-08-05T06:04:08;4.00;;;2.67;;
38513;SDS011;24282;48.400;10.808;2022-08-05T06:06:36;3.72;;;2.60;;
38513;SDS011;24282;48.400;10.808;2022-08-05T06:09:03;3.72;;;2.40;;
38513;SDS011;24282;48.400;10.808;2022-08-05T06:11:30;4.40;;;2.33;;
38513;SDS011;24282;48.400;10.808;2022-08-05T06:13:56;3.45;;;2.70;;
38513;SDS011;24282;48.400;10.808;2022-08-05T06:16:22;3.13;;;2.28;;
38513;SDS011;24282;48.400;10.808;2022-08-05T06:18:48;4.75;;;2.45;;
38513;SDS011;24282;48.400;10.808;2022-08-05T06:21:14;5.30;;;3.20;;
38513;SDS011;24282;48.400;10.808;2022-08-05T06:23:40;3.58;;;2.55;;
38513;SDS011;24282;48.400;10.808;2022-08-05T06:26:05;3.95;;;2.25;;
38513;SDS011;24282;48.400;10.808;2022-08-05T06:28:31;4.65;;;2.60;;
38513;SDS011;24282;48.400;10.808;2022-08-05T06:30:57;3.47;;;2.28;;
38513;SDS011;24282;48.400;10.808;2022-08-05T06:33:23;4.35;;;2.70;;
38513;SDS011;24282;48.400;10.808;2022-08-05T06:35:48;5.13;;;2.60;;
38513;SDS011;24282;48.400;10.808;2022-08-05T06:38:14;4.22;;;2.78;;
38513;SDS011;24282;48.400;10.808;2022-08-05T06:40:43;4.78;;;2.60;;
38513;SDS011;24282;48.400;10.808;2022-08-05T06:43:08;3.90;;;2.67;;
38513;SDS011;24282;48.400;10.808;2022-08-05T06:45:34;4.93;;;2.70;;
38513;SDS011;24282;48.400;10.808;2022-08-05T06:48:00;4.20;;;2.47;;
38513;SDS011;24282;48.400;10.808;2022-08-05T06:50:26;3.67;;;2.50;;
38513;SDS011;24282;48.400;10.808;2022-08-05T06:52:51;5.35;;;2.50;;
38513;SDS011;24282;48.400;10.808;2022-08-05T06:55:17;5.28;;;3.00;;
38513;SDS011;24282;48.400;10.808;2022-08-05T06:57:43;5.03;;;2.63;;
38513;SDS011;24282;48.400;10.808;2022-08-05T07:00:09;4.28;;;2.60;;
38513;SDS011;24282;48.400;10.808;2022-08-05T07:02:42;3.40;;;2.30;;
38513;SDS011;24282;48.400;10.808;2022-08-05T07:05:08;5.30;;;2.67;;
38513;SDS011;24282;48.400;10.808;2022-08-05T07:07:35;4.85;;;2.63;;
38513;SDS011;24282;48.400;10.808;2022-08-05T07:10:01;5.82;;;2.30;;
38513;SDS011;24282;48.400;10.808;2022-08-05T07:12:26;3.80;;;2.65;;
38513;SDS011;24282;48.400;10.808;2022-08-05T07:15:11;5.60;;;2.35;;
38513;SDS011;24282;48.400;10.808;2022-08-05T07:17:55;6.38;;;2.83;;
38513;SDS011;24282;48.400;10.808;2022-08-05T07:20:20;4.22;;;2.42;;
38513;SDS011;24282;48.400;10.808;2022-08-05T07:22:46;4.90;;;2.97;;
38513;SDS011;24282;48.400;10.808;2022-08-05T07:25:12;3.75;;;2.22;;
38513;SDS011;24282;48.400;10.808;2022-08-05T07:27:38;5.78;;;2.40;;
38513;SDS011;24282;48.400;10.808;2022-08-05T07:30:04;5.38;;;2.67;;
38513;SDS011;24282;48.400;10.808;2022-08-05T07:32:33;6.25;;;3.05;;
38513;SDS011;24282;48.400;10.808;2022-08-05T07:35:21;5.93;;;3.58;;
38513;SDS011;24282;48.400;10.808;2022-08-05T07:37:47;5.30;;;2.53;;
38513;SDS011;24282;48.400;10.808;2022-08-05T07:40:12;6.38;;;2.72;;
38513;SDS011;24282;48.400;10.808;2022-08-05T07:42:38;4.90;;;2.63;;
38513;SDS011;24282;48.400;10.808;2022-08-05T07:45:04;4.65;;;2.97;;
38513;SDS011;24282;48.400;10.808;2022-08-05T07:47:30;4.07;;;2.70;;
38513;SDS011;24282;48.400;10.808;2022-08-05T07:49:56;5.43;;;2.60;;
38513;SDS011;24282;48.400;10.808;2022-08-05T07:52:22;10.80;;;2.50;;
38513;SDS011;24282;48.400;10.808;2022-08-05T07:54:47;7.72;;;2.40;;
38513;SDS011;24282;48.400;10.808;2022-08-05T07:57:13;6.70;;;2.90;;
38513;SDS011;24282;48.400;10.808;2022-08-05T07:59:39;5.20;;;2.40;;
38513;SDS011;24282;48.400;10.808;2022-08-05T08:02:05;4.07;;;2.40;;
38513;SDS011;24282;48.400;10.808;2022-08-05T08:04:31;5.93;;;2.83;;
38513;SDS011;24282;48.400;10.808;2022-08-05T08:06:57;5.25;;;2.35;;
38513;SDS011;24282;48.400;10.808;2022-08-05T08:09:25;4.20;;;2.00;;
38513;SDS011;24282;48.400;10.808;2022-08-05T08:11:51;5.05;;;2.40;;
38513;SDS011;24282;48.400;10.808;2022-08-05T08:14:17;5.15;;;2.05;;
38513;SDS011;24282;48.400;10.808;2022-08-05T08:16:43;4.28;;;2.33;;
38513;SDS011;24282;48.400;10.808;2022-08-05T08:19:09;4.75;;;2.42;;
38513;SDS011;24282;48.400;10.808;2022-08-05T08:21:35;4.22;;;2.38;;
38513;SDS011;24282;48.400;10.808;2022-08-05T08:24:01;4.40;;;2.20;;
38513;SDS011;24282;48.400;10.808;2022-08-05T08:26:26;3.70;;;2.30;;
38513;SDS011;24282;48.400;10.808;2022-08-05T08:28:52;5.40;;;2.50;;
38513;SDS011;24282;48.400;10.808;2022-08-05T08:31:18;4.18;;;2.30;;
38513;SDS011;24282;48.400;10.808;2022-08-05T08:33:44;4.53;;;2.10;;
38513;SDS011;24282;48.400;10.808;2022-08-05T08:36:10;3.72;;;1.90;;
38513;SDS011;24282;48.400;10.808;2022-08-05T08:38:36;4.90;;;2.30;;
38513;SDS011;24282;48.400;10.808;2022-08-05T08:41:03;3.92;;;2.13;;
38513;SDS011;24282;48.400;10.808;2022-08-05T08:43:32;3.55;;;1.90;;
38513;SDS011;24282;48.400;10.808;2022-08-05T08:46:00;2.75;;;1.80;;
38513;SDS011;24282;48.400;10.808;2022-08-05T08:48:28;3.13;;;1.80;;
38513;SDS011;24282;48.400;10.808;2022-08-05T08:50:55;2.50;;;1.70;;
38513;SDS011;24282;48.400;10.808;2022-08-05T08:53:22;4.55;;;2.00;;
38513;SDS011;24282;48.400;10.808;2022-08-05T08:55:51;4.18;;;2.00;;
38513;SDS011;24282;48.400;10.808;2022-08-05T08:58:17;3.95;;;1.58;;
38513;SDS011;24282;48.400;10.808;2022-08-05T09:00:43;2.85;;;1.63;;
38513;SDS011;24282;48.400;10.808;2022-08-05T09:03:10;3.53;;;2.13;;
38513;SDS011;24282;48.400;10.808;2022-08-05T09:05:36;4.45;;;2.33;;
38513;SDS011;24282;48.400;10.808;2022-08-05T09:08:02;3.35;;;1.73;;
38513;SDS011;24282;48.400;10.808;2022-08-05T09:10:29;2.63;;;1.80;;
38513;SDS011;24282;48.400;10.808;2022-08-05T09:12:55;3.58;;;1.98;;
38513;SDS011;24282;48.400;10.808;2022-08-05T09:15:22;4.95;;;1.98;;
38513;SDS011;24282;48.400;10.808;2022-08-05T09:17:48;4.22;;;1.98;;
38513;SDS011;24282;48.400;10.808;2022-08-05T09:20:15;2.83;;;1.70;;
38513;SDS011;24282;48.400;10.808;2022-08-05T09:25:42;3.05;;;1.58;;
38513;SDS011;24282;48.400;10.808;2022-08-05T09:28:16;2.85;;;1.45;;
38513;SDS011;24282;48.400;10.808;2022-08-05T09:30:53;2.80;;;1.58;;
38513;SDS011;24282;48.400;10.808;2022-08-05T09:33:20;5.93;;;1.77;;
38513;SDS011;24282;48.400;10.808;2022-08-05T09:36:00;3.65;;;1.67;;
38513;SDS011;24282;48.400;10.808;2022-08-05T09:38:28;3.53;;;1.85;;
38513;SDS011;24282;48.400;10.808;2022-08-05T09:41:04;3.25;;;1.50;;
38513;SDS011;24282;48.400;10.808;2022-08-05T09:43:34;3.10;;;1.60;;
38513;SDS011;24282;48.400;10.808;2022-08-05T09:46:01;2.05;;;1.13;;
38513;SDS011;24282;48.400;10.808;2022-08-05T09:51:02;6.47;;;1.50;;
38513;SDS011;24282;48.400;10.808;2022-08-05T09:53:46;2.28;;;1.30;;
38513;SDS011;24282;48.400;10.808;2022-08-05T09:56:23;2.10;;;1.38;;
38513;SDS011;24282;48.400;10.808;2022-08-05T09:59:05;1.17;;;0.90;;
38513;SDS011;24282;48.400;10.808;2022-08-05T10:01:33;2.67;;;1.10;;
38513;SDS011;24282;48.400;10.808;2022-08-05T10:04:07;3.97;;;1.30;;
38513;SDS011;24282;48.400;10.808;2022-08-05T10:06:35;1.88;;;1.30;;
38513;SDS011;24282;48.400;10.808;2022-08-05T10:11:35;1.85;;;1.40;;
38513;SDS011;24282;48.400;10.808;2022-08-05T10:14:19;2.05;;;1.48;;
38513;SDS011;24282;48.400;10.808;2022-08-05T10:16:45;3.70;;;1.33;;
38513;SDS011;24282;48.400;10.808;2022-08-05T10:19:11;4.00;;;1.67;;
38513;SDS011;24282;48.400;10.808;2022-08-05T10:21:38;2.10;;;1.30;;
38513;SDS011;24282;48.400;10.808;2022-08-05T10:24:04;2.55;;;1.40;;
38513;SDS011;24282;48.400;10.808;2022-08-05T10:26:30;3.60;;;1.48;;
38513;SDS011;24282;48.400;10.808;2022-08-05T10:28:57;2.50;;;1.50;;
38513;SDS011;24282;48.400;10.808;2022-08-05T10:31:23;2.30;;;1.42;;
38513;SDS011;24282;48.400;10.808;2022-08-05T10:33:49;2.45;;;1.58;;
38513;SDS011;24282;48.400;10.808;2022-08-05T10:36:15;1.92;;;1.23;;
38513;SDS011;24282;48.400;10.808;2022-08-05T10:38:42;2.67;;;1.30;;
38513;SDS011;24282;48.400;10.808;2022-08-05T10:41:25;3.80;;;1.48;;
38513;SDS011;24282;48.400;10.808;2022-08-05T10:43:57;2.50;;;1.35;;
38513;SDS011;24282;48.400;10.808;2022-08-05T10:46:40;2.38;;;1.50;;
38513;SDS011;24282;48.400;10.808;2022-08-05T10:49:08;2.20;;;1.48;;
38513;SDS011;24282;48.400;10.808;2022-08-05T10:51:44;2.42;;;1.40;;
38513;SDS011;24282;48.400;10.808;2022-08-05T10:54:12;1.77;;;1.48;;
38513;SDS011;24282;48.400;10.808;2022-08-05T10:56:46;3.72;;;1.80;;
38513;SDS011;24282;48.400;10.808;2022-08-05T10:59:34;2.03;;;1.30;;
38513;SDS011;24282;48.400;10.808;2022-08-05T11:02:07;2.55;;;1.55;;
38513;SDS011;24282;48.400;10.808;2022-08-05T11:04:43;2.10;;;1.25;;
38513;SDS011;24282;48.400;10.808;2022-08-05T11:07:11;3.60;;;1.33;;
38513;SDS011;24282;48.400;10.808;2022-08-05T11:17:53;3.42;;;1.52;;
38513;SDS011;24282;48.400;10.808;2022-08-05T11:20:34;3.95;;;1.38;;
38513;SDS011;24282;48.400;10.808;2022-08-05T11:36:00;4.22;;;1.63;;
38513;SDS011;24282;48.400;10.808;2022-08-05T11:41:21;1.65;;;1.40;;
38513;SDS011;24282;48.400;10.808;2022-08-05T11:43:58;1.77;;;1.10;;
38513;SDS011;24282;48.400;10.808;2022-08-05T11:48:57;2.53;;;1.33;;
38513;SDS011;24282;48.400;10.808;2022-08-05T11:51:24;2.78;;;1.50;;
38513;SDS011;24282;48.400;10.808;2022-08-05T11:53:52;1.98;;;1.27;;
38513;SDS011;24282;48.400;10.808;2022-08-05T11:56:18;1.85;;;1.30;;
38513;SDS011;24282;48.400;10.808;2022-08-05T11:58:45;3.22;;;1.85;;
38513;SDS011;24282;48.400;10.808;2022-08-05T12:01:13;2.03;;;1.35;;
38513;SDS011;24282;48.400;10.808;2022-08-05T12:06:09;2.25;;;1.42;;
38513;SDS011;24282;48.400;10.808;2022-08-05T12:11:09;3.78;;;1.58;;
38513;SDS011;24282;48.400;10.808;2022-08-05T12:13:40;3.13;;;1.10;;
38513;SDS011;24282;48.400;10.808;2022-08-05T12:16:36;1.80;;;1.45;;
38513;SDS011;24282;48.400;10.808;2022-08-05T12:19:04;1.88;;;1.35;;
38513;SDS011;24282;48.400;10.808;2022-08-05T12:21:35;1.65;;;1.23;;
38513;SDS011;24282;48.400;10.808;2022-08-05T12:24:20;2.58;;;1.52;;
38513;SDS011;24282;48.400;10.808;2022-08-05T12:31:48;2.33;;;1.30;;
38513;SDS011;24282;48.400;10.808;2022-08-05T12:34:22;3.30;;;1.33;;
38513;SDS011;24282;48.400;10.808;2022-08-05T12:36:54;1.80;;;1.25;;
38513;SDS011;24282;48.400;10.808;2022-08-05T12:39:24;2.78;;;1.40;;
38513;SDS011;24282;48.400;10.808;2022-08-05T12:41:55;2.35;;;1.65;;
38513;SDS011;24282;48.400;10.808;2022-08-05T12:44:23;1.90;;;1.35;;
38513;SDS011;24282;48.400;10.808;2022-08-05T12:46:51;2.20;;;1.20;;
38513;SDS011;24282;48.400;10.808;2022-08-05T12:49:18;2.50;;;1.38;;
38513;SDS011;24282;48.400;10.808;2022-08-05T12:54:17;2.28;;;1.50;;
38513;SDS011;24282;48.400;10.808;2022-08-05T12:56:46;2.67;;;1.63;;
38513;SDS011;24282;48.400;10.808;2022-08-05T12:59:15;2.20;;;1.42;;
38513;SDS011;24282;48.400;10.808;2022-08-05T13:01:44;6.05;;;1.88;;
38513;SDS011;24282;48.400;10.808;2022-08-05T13:04:20;2.17;;;1.30;;
38513;SDS011;24282;48.400;10.808;2022-08-05T13:06:46;2.00;;;1.40;;
38513;SDS011;24282;48.400;10.808;2022-08-05T13:09:13;2.20;;;1.60;;
38513;SDS011;24282;48.400;10.808;2022-08-05T13:11:40;2.08;;;1.50;;
38513;SDS011;24282;48.400;10.808;2022-08-05T13:16:45;2.53;;;1.45;;
38513;SDS011;24282;48.400;10.808;2022-08-05T13:19:12;1.90;;;1.40;;
38513;SDS011;24282;48.400;10.808;2022-08-05T13:21:39;2.53;;;1.40;;
38513;SDS011;24282;48.400;10.808;2022-08-05T13:24:05;2.58;;;1.50;;
38513;SDS011;24282;48.400;10.808;2022-08-05T13:26:31;2.08;;;1.40;;
38513;SDS011;24282;48.400;10.808;2022-08-05T13:28:58;2.33;;;1.60;;
38513;SDS011;24282;48.400;10.808;2022-08-05T13:31:24;4.40;;;1.33;;
38513;SDS011;24282;48.400;10.808;2022-08-05T13:33:49;2.30;;;1.50;;
38513;SDS011;24282;48.400;10.808;2022-08-05T13:36:15;2.67;;;1.50;;
38513;SDS011;24282;48.400;10.808;2022-08-05T13:38:41;2.40;;;1.40;;
38513;SDS011;24282;48.400;10.808;2022-08-05T13:41:06;2.92;;;1.38;;
38513;SDS011;24282;48.400;10.808;2022-08-05T13:43:32;2.80;;;1.63;;
38513;SDS011;24282;48.400;10.808;2022-08-05T13:45:58;3.05;;;1.60;;
38513;SDS011;24282;48.400;10.808;2022-08-05T13:48:24;2.35;;;1.20;;
38513;SDS011;24282;48.400;10.808;2022-08-05T13:50:49;2.78;;;1.40;;
38513;SDS011;24282;48.400;10.808;2022-08-05T13:53:15;2.22;;;1.65;;
38513;SDS011;24282;48.400;10.808;2022-08-05T13:55:49;2.30;;;1.52;;
38513;SDS011;24282;48.400;10.808;2022-08-05T13:58:15;1.50;;;1.27;;
38513;SDS011;24282;48.400;10.808;2022-08-05T14:00:41;1.70;;;1.40;;
38513;SDS011;24282;48.400;10.808;2022-08-05T14:03:06;1.83;;;1.42;;
38513;SDS011;24282;48.400;10.808;2022-08-05T14:05:32;2.50;;;1.42;;
38513;SDS011;24282;48.400;10.808;2022-08-05T14:07:58;2.85;;;1.60;;
38513;SDS011;24282;48.400;10.808;2022-08-05T14:10:24;2.55;;;1.45;;
38513;SDS011;24282;48.400;10.808;2022-08-05T14:12:50;2.58;;;1.55;;
38513;SDS011;24282;48.400;10.808;2022-08-05T14:15:16;2.63;;;1.45;;
38513;SDS011;24282;48.400;10.808;2022-08-05T14:17:42;1.60;;;1.27;;
38513;SDS011;24282;48.400;10.808;2022-08-05T14:20:08;2.00;;;1.60;;
38513;SDS011;24282;48.400;10.808;2022-08-05T14:22:34;2.28;;;1.50;;
38513;SDS011;24282;48.400;10.808;2022-08-05T14:25:00;1.83;;;1.40;;
38513;SDS011;24282;48.400;10.808;2022-08-05T14:27:28;2.53;;;1.60;;
38513;SDS011;24282;48.400;10.808;2022-08-05T14:29:54;2.38;;;1.38;;
38513;SDS011;24282;48.400;10.808;2022-08-05T14:32:20;1.95;;;1.38;;
38513;SDS011;24282;48.400;10.808;2022-08-05T14:34:46;2.13;;;1.48;;
38513;SDS011;24282;48.400;10.808;2022-08-05T14:37:12;1.85;;;1.40;;
38513;SDS011;24282;48.400;10.808;2022-08-05T14:39:37;3.95;;;1.55;;
38513;SDS011;24282;48.400;10.808;2022-08-05T14:42:03;2.00;;;1.55;;
38513;SDS011;24282;48.400;10.808;2022-08-05T14:44:29;2.50;;;1.63;;
38513;SDS011;24282;48.400;10.808;2022-08-05T14:46:55;3.25;;;1.48;;
38513;SDS011;24282;48.400;10.808;2022-08-05T14:49:21;2.20;;;1.40;;
38513;SDS011;24282;48.400;10.808;2022-08-05T14:51:46;1.95;;;1.40;;
38513;SDS011;24282;48.400;10.808;2022-08-05T14:54:12;4.35;;;1.50;;
38513;SDS011;24282;48.400;10.808;2022-08-05T14:56:38;2.60;;;1.45;;
38513;SDS011;24282;48.400;10.808;2022-08-05T14:59:04;2.30;;;1.48;;
38513;SDS011;24282;48.400;10.808;2022-08-05T15:01:30;1.95;;;1.40;;
38513;SDS011;24282;48.400;10.808;2022-08-05T15:03:55;6.25;;;1.50;;
38513;SDS011;24282;48.400;10.808;2022-08-05T15:06:21;3.65;;;1.30;;
38513;SDS011;24282;48.400;10.808;2022-08-05T15:08:47;2.33;;;1.60;;
38513;SDS011;24282;48.400;10.808;2022-08-05T15:11:12;1.58;;;1.20;;
38513;SDS011;24282;48.400;10.808;2022-08-05T15:13:38;3.63;;;1.30;;
38513;SDS011;24282;48.400;10.808;2022-08-05T15:16:05;2.88;;;1.35;;
38513;SDS011;24282;48.400;10.808;2022-08-05T15:18:31;2.30;;;1.30;;
38513;SDS011;24282;48.400;10.808;2022-08-05T15:20:59;1.67;;;1.50;;
38513;SDS011;24282;48.400;10.808;2022-08-05T15:23:25;2.28;;;1.40;;
38513;SDS011;24282;48.400;10.808;2022-08-05T15:25:51;2.58;;;1.60;;
38513;SDS011;24282;48.400;10.808;2022-08-05T15:28:16;2.55;;;1.70;;
38513;SDS011;24282;48.400;10.808;2022-08-05T15:30:43;2.53;;;1.40;;
38513;SDS011;24282;48.400;10.808;2022-08-05T15:33:09;1.85;;;1.50;;
38513;SDS011;24282;48.400;10.808;2022-08-05T15:35:35;2.20;;;1.40;;
38513;SDS011;24282;48.400;10.808;2022-08-05T15:38:01;3.50;;;1.38;;
38513;SDS011;24282;48.400;10.808;2022-08-05T15:40:27;2.67;;;1.55;;
38513;SDS011;24282;48.400;10.808;2022-08-05T15:42:53;2.85;;;1.48;;